createdAt,value
2017-10-27T00:00:35.408Z,80.71
2017-10-27T00:03:03.045Z,80.75
2017-10-27T00:05:30.678Z,80.50
2017-10-27T00:07:58.341Z,80.86
2017-10-27T00:10:25.942Z,80.63
2017-10-27T00:12:53.588Z,80.56
2017-10-27T00:15:21.194Z,80.48
2017-10-27T00:17:48.829Z,80.37
2017-10-27T00:20:16.451Z,80.20
2017-10-27T00:22:44.061Z,80.00
2017-10-27T00:25:11.691Z,79.90
2017-10-27T00:27:39.281Z,80.02
2017-10-27T00:30:06.920Z,80.16
2017-10-27T00:32:34.514Z,80.13
2017-10-27T00:35:02.130Z,80.08
2017-10-27T00:37:29.771Z,80.02
2017-10-27T00:39:57.385Z,79.98
2017-10-27T00:42:25.038Z,79.96
2017-10-27T00:44:52.674Z,80.02
2017-10-27T00:47:20.256Z,80.15
2017-10-27T00:49:47.872Z,79.78
2017-10-27T00:52:15.470Z,79.81
2017-10-27T00:54:43.113Z,79.74
2017-10-27T00:57:10.720Z,79.55
2017-10-27T00:59:38.317Z,79.32
2017-10-27T01:02:05.950Z,79.13
2017-10-27T01:04:33.554Z,79.18
2017-10-27T01:07:01.274Z,79.55
2017-10-27T01:09:28.889Z,78.90
2017-10-27T01:11:56.473Z,78.98
2017-10-27T01:14:24.437Z,79.15
2017-10-27T01:16:52.049Z,78.94
2017-10-27T01:19:19.702Z,79.20
2017-10-27T01:21:47.289Z,79.19
2017-10-27T01:24:14.892Z,78.91
2017-10-27T01:26:42.509Z,79.14
2017-10-27T01:29:10.101Z,79.19
2017-10-27T01:31:37.737Z,79.31
2017-10-27T01:34:05.344Z,79.09
2017-10-27T01:36:32.950Z,79.33
2017-10-27T01:39:00.625Z,79.27
2017-10-27T01:41:28.209Z,79.00
2017-10-27T01:43:56.094Z,78.99
2017-10-27T01:46:23.682Z,78.90
2017-10-27T01:48:51.277Z,78.43
2017-10-27T01:51:18.901Z,78.14
2017-10-27T01:53:46.489Z,78.22
2017-10-27T01:56:14.089Z,78.36
2017-10-27T01:58:41.721Z,78.38
2017-10-27T02:01:09.331Z,78.56
2017-10-27T02:03:36.927Z,78.55
2017-10-27T02:06:04.562Z,78.46
2017-10-27T02:08:32.154Z,78.38
2017-10-27T02:10:59.746Z,78.24
2017-10-27T02:13:27.390Z,77.69
2017-10-27T02:15:55.026Z,77.95
2017-10-27T02:18:22.677Z,77.75
2017-10-27T02:20:50.284Z,77.91
2017-10-27T02:23:17.897Z,78.13
2017-10-27T02:25:45.949Z,77.95
2017-10-27T02:28:13.549Z,77.61
2017-10-27T02:30:41.198Z,77.57
2017-10-27T02:33:08.782Z,77.50
2017-10-27T02:35:36.410Z,77.08
2017-10-27T02:38:04.029Z,77.05
2017-10-27T02:40:31.638Z,77.26
2017-10-27T02:42:59.277Z,77.41
2017-10-27T02:45:27.167Z,77.39
2017-10-27T02:47:54.750Z,77.63
2017-10-27T02:50:22.395Z,77.65
2017-10-27T02:52:49.977Z,78.00
2017-10-27T02:55:17.622Z,78.34
2017-10-27T02:57:45.208Z,78.38
2017-10-27T03:00:12.835Z,78.41
2017-10-27T03:02:40.499Z,78.52
2017-10-27T03:05:08.096Z,79.00
2017-10-27T03:07:35.781Z,78.70
2017-10-27T03:10:03.383Z,79.00
2017-10-27T03:12:30.972Z,79.15
2017-10-27T03:14:58.598Z,78.94
2017-10-27T03:17:26.191Z,78.99
2017-10-27T03:19:53.877Z,78.63
2017-10-27T03:22:21.476Z,78.46
2017-10-27T03:24:49.073Z,78.70
2017-10-27T03:27:16.932Z,78.67
2017-10-27T03:29:44.555Z,78.46
2017-10-27T03:32:12.556Z,78.70
2017-10-27T03:34:40.158Z,78.29
2017-10-27T03:37:07.784Z,77.96
2017-10-27T03:39:35.738Z,78.44
2017-10-27T03:42:03.352Z,78.97
2017-10-27T03:44:30.971Z,79.51
2017-10-27T03:46:58.613Z,78.87
2017-10-27T03:49:26.201Z,79.17
2017-10-27T03:51:53.825Z,78.82
2017-10-27T03:54:21.430Z,78.74
2017-10-27T03:56:49.385Z,78.49
2017-10-27T03:59:16.993Z,78.52
2017-10-27T04:01:44.618Z,78.78
2017-10-27T04:04:12.577Z,78.44
2017-10-27T04:06:40.165Z,78.31
2017-10-27T04:09:07.777Z,78.20
2017-10-27T04:11:35.365Z,78.10
2017-10-27T04:14:02.956Z,77.27
2017-10-27T04:16:30.568Z,77.74
2017-10-27T04:18:58.180Z,77.74
2017-10-27T04:21:25.808Z,77.00
2017-10-27T04:23:53.673Z,77.11
2017-10-27T04:26:21.286Z,77.30
2017-10-27T04:28:49.212Z,77.48
2017-10-27T04:31:16.789Z,77.82
2017-10-27T04:33:44.737Z,77.89
2017-10-27T04:36:12.605Z,78.04
2017-10-27T04:38:40.473Z,78.26
2017-10-27T04:41:08.085Z,78.67
2017-10-27T04:43:36.009Z,78.49
2017-10-27T04:46:03.685Z,78.80
2017-10-27T04:48:31.273Z,79.62
2017-10-27T04:50:58.870Z,79.44
2017-10-27T04:53:26.485Z,80.67
2017-10-27T04:55:54.075Z,82.51
2017-10-27T04:58:21.702Z,83.24
2017-10-27T05:00:49.551Z,83.39
2017-10-27T05:03:17.138Z,83.74
2017-10-27T05:05:44.752Z,84.25
2017-10-27T05:08:12.640Z,84.80
2017-10-27T05:10:40.320Z,84.95
2017-10-27T05:13:07.900Z,85.56
2017-10-27T05:15:35.497Z,84.67
2017-10-27T05:18:08.642Z,85.01
2017-10-27T05:20:41.736Z,85.68
2017-10-27T05:23:15.226Z,85.66
2017-10-27T05:25:43.566Z,85.10
2017-10-27T05:28:11.202Z,85.57
2017-10-27T05:30:39.219Z,85.44
2017-10-27T05:33:06.865Z,85.67
2017-10-27T05:35:34.484Z,85.44
2017-10-27T05:38:02.090Z,85.54
2017-10-27T05:40:29.732Z,84.87
2017-10-27T05:42:57.319Z,84.57
2017-10-27T05:45:24.925Z,84.42
2017-10-27T05:47:52.615Z,84.43
2017-10-27T05:50:20.206Z,84.44
2017-10-27T05:52:48.692Z,84.50
2017-10-27T05:55:16.308Z,84.41
2017-10-27T05:57:43.910Z,84.41
2017-10-27T06:00:11.535Z,84.21
2017-10-27T06:02:39.128Z,84.26
2017-10-27T06:05:06.799Z,84.29
2017-10-27T06:07:34.392Z,83.62
2017-10-27T06:10:02.250Z,83.35
2017-10-27T06:12:29.876Z,83.51
2017-10-27T06:14:57.709Z,83.43
2017-10-27T06:17:25.335Z,83.45
2017-10-27T06:19:52.937Z,83.08
2017-10-27T06:22:20.523Z,82.71
2017-10-27T06:24:48.140Z,83.09
2017-10-27T06:27:16.055Z,83.25
2017-10-27T06:29:43.678Z,83.64
2017-10-27T06:32:11.427Z,83.86
2017-10-27T06:34:39.025Z,83.78
2017-10-27T06:37:07.221Z,84.16
2017-10-27T06:39:34.822Z,83.71
2017-10-27T06:42:02.473Z,84.08
2017-10-27T06:44:30.064Z,83.41
2017-10-27T06:46:57.661Z,83.01
2017-10-27T06:49:25.272Z,83.00
2017-10-27T06:51:52.860Z,82.47
2017-10-27T06:54:20.517Z,82.20
2017-10-27T06:56:48.117Z,82.83
2017-10-27T06:59:15.737Z,83.08
2017-10-27T07:01:43.423Z,83.35
2017-10-27T07:04:11.008Z,84.08
2017-10-27T07:06:38.821Z,83.82
2017-10-27T07:09:06.467Z,83.55
2017-10-27T07:11:34.053Z,82.93
2017-10-27T07:14:01.702Z,82.22
2017-10-27T07:16:29.657Z,82.21
2017-10-27T07:18:57.325Z,82.49
2017-10-27T07:21:24.938Z,82.19
2017-10-27T07:23:52.562Z,81.30
2017-10-27T07:26:20.168Z,81.60
2017-10-27T07:28:47.762Z,81.37
2017-10-27T07:31:15.377Z,81.97
2017-10-27T07:33:42.991Z,81.05
2017-10-27T07:36:10.613Z,81.33
2017-10-27T07:38:38.250Z,81.79
2017-10-27T07:41:05.850Z,81.68
2017-10-27T07:43:33.500Z,81.84
2017-10-27T07:46:01.092Z,81.37
2017-10-27T07:48:28.968Z,80.95
2017-10-27T07:50:56.576Z,80.97
2017-10-27T07:53:24.174Z,81.04
2017-10-27T07:55:51.828Z,80.27
2017-10-27T07:58:19.447Z,79.63
2017-10-27T08:00:47.039Z,78.86
2017-10-27T08:03:14.950Z,78.04
2017-10-27T08:05:42.546Z,78.08
2017-10-27T08:08:10.199Z,78.00
2017-10-27T08:10:37.788Z,77.54
2017-10-27T08:13:05.381Z,77.43
2017-10-27T08:15:33.010Z,77.33
2017-10-27T08:18:00.621Z,76.31
2017-10-27T08:20:28.264Z,76.78
2017-10-27T08:22:55.857Z,76.03
2017-10-27T08:25:23.471Z,75.96
2017-10-27T08:27:51.084Z,76.04
2017-10-27T08:30:18.685Z,75.70
2017-10-27T08:32:46.279Z,76.26
2017-10-27T08:35:13.941Z,75.26
2017-10-27T08:37:41.528Z,74.98
2017-10-27T08:40:09.115Z,74.68
2017-10-27T08:42:36.745Z,74.75
2017-10-27T08:45:04.349Z,73.47
2017-10-27T08:47:31.942Z,72.68
2017-10-27T08:49:59.858Z,73.47
2017-10-27T08:52:27.456Z,74.44
2017-10-27T08:54:55.112Z,75.06
2017-10-27T08:57:22.691Z,75.50
2017-10-27T08:59:50.297Z,74.50
2017-10-27T09:02:17.930Z,74.57
2017-10-27T09:04:45.561Z,74.54
2017-10-27T09:07:13.249Z,74.60
2017-10-27T09:09:40.882Z,75.40
2017-10-27T09:12:08.473Z,74.85
2017-10-27T09:14:36.129Z,75.65
2017-10-27T09:17:03.788Z,76.08
2017-10-27T09:19:31.425Z,74.37
2017-10-27T09:21:59.010Z,74.27
2017-10-27T09:24:26.610Z,74.54
2017-10-27T09:26:54.237Z,75.37
2017-10-27T09:29:21.856Z,76.18
2017-10-27T09:31:49.524Z,76.97
2017-10-27T09:34:17.122Z,76.29
2017-10-27T09:36:44.713Z,75.95
2017-10-27T09:39:12.410Z,76.78
2017-10-27T09:41:40.001Z,76.77
2017-10-27T09:44:07.629Z,76.42
2017-10-27T09:46:35.267Z,76.16
2017-10-27T09:49:02.850Z,76.03
2017-10-27T09:51:30.495Z,75.36
2017-10-27T09:53:58.093Z,73.61
2017-10-27T09:56:25.729Z,73.38
2017-10-27T09:58:53.335Z,72.60
2017-10-27T10:01:20.924Z,71.62
2017-10-27T10:03:48.554Z,72.49
2017-10-27T10:06:16.157Z,73.61
2017-10-27T10:08:43.803Z,74.75
2017-10-27T10:11:11.416Z,74.06
2017-10-27T10:13:39.365Z,74.35
2017-10-27T10:16:07.018Z,73.50
2017-10-27T10:18:34.679Z,73.95
2017-10-27T10:21:02.329Z,74.67
2017-10-27T10:23:29.927Z,74.01
2017-10-27T10:25:57.514Z,73.16
2017-10-27T10:28:25.186Z,73.13
2017-10-27T10:30:52.783Z,72.94
2017-10-27T10:33:20.468Z,72.82
2017-10-27T10:35:48.070Z,72.90
2017-10-27T10:38:15.669Z,73.37
2017-10-27T10:40:43.296Z,73.95
2017-10-27T10:43:10.890Z,74.28
2017-10-27T10:45:38.513Z,75.24
2017-10-27T10:48:06.124Z,75.30
2017-10-27T10:50:33.716Z,76.01
2017-10-27T10:53:01.658Z,77.27
2017-10-27T10:55:29.257Z,77.85
2017-10-27T10:57:56.887Z,78.27
2017-10-27T11:00:24.472Z,77.38
2017-10-27T11:02:52.120Z,78.18
2017-10-27T11:05:19.739Z,78.16
2017-10-27T11:07:47.329Z,79.23
2017-10-27T11:10:14.958Z,79.60
2017-10-27T11:12:42.552Z,79.59
2017-10-27T11:15:10.429Z,78.87
2017-10-27T11:17:38.091Z,78.43
2017-10-27T11:20:05.682Z,77.43
2017-10-27T11:22:33.313Z,77.13
2017-10-27T11:25:00.896Z,76.05
2017-10-27T11:27:28.535Z,75.23
2017-10-27T11:29:56.164Z,75.19
2017-10-27T11:32:23.774Z,73.90
2017-10-27T11:34:51.444Z,73.62
2017-10-27T11:37:19.056Z,72.59
2017-10-27T11:39:46.653Z,72.76
2017-10-27T11:42:14.260Z,72.92
2017-10-27T11:44:41.867Z,72.60
2017-10-27T11:47:09.839Z,72.47
2017-10-27T11:49:37.449Z,71.98
2017-10-27T11:52:05.058Z,71.45
2017-10-27T11:54:32.691Z,70.65
2017-10-27T11:57:00.279Z,69.50
2017-10-27T11:59:27.914Z,69.06
2017-10-27T12:01:55.922Z,70.33
2017-10-27T12:04:23.545Z,70.02
2017-10-27T12:06:51.214Z,69.51
2017-10-27T12:09:18.861Z,70.18
2017-10-27T12:11:46.509Z,70.00
2017-10-27T12:14:14.146Z,70.06
2017-10-27T12:16:41.886Z,69.68
2017-10-27T12:19:09.560Z,69.35
2017-10-27T12:21:37.171Z,68.48
2017-10-27T12:24:04.797Z,69.14
2017-10-27T12:26:32.388Z,68.29
2017-10-27T12:29:00.053Z,68.79
2017-10-27T12:31:27.729Z,69.75
2017-10-27T12:33:56.030Z,70.46
2017-10-27T12:36:23.769Z,70.00
2017-10-27T12:38:51.386Z,69.74
2017-10-27T12:41:19.011Z,68.77
2017-10-27T12:43:46.619Z,68.42
2017-10-27T12:46:14.209Z,67.96
2017-10-27T12:48:42.078Z,67.74
2017-10-27T12:51:09.708Z,67.17
2017-10-27T12:53:37.401Z,68.06
2017-10-27T12:56:05.039Z,68.80
2017-10-27T12:58:32.643Z,67.50
2017-10-27T13:01:00.304Z,67.58
2017-10-27T13:03:27.907Z,67.30
2017-10-27T13:05:55.570Z,68.26
2017-10-27T13:08:23.209Z,69.66
2017-10-27T13:10:50.790Z,71.63
2017-10-27T13:13:18.419Z,73.23
2017-10-27T13:15:46.137Z,74.63
2017-10-27T13:18:13.801Z,75.83
2017-10-27T13:20:41.581Z,76.18
2017-10-27T13:23:09.193Z,76.35
2017-10-27T13:25:36.842Z,77.95
2017-10-27T13:28:04.424Z,78.28
2017-10-27T13:30:32.071Z,79.03
2017-10-27T13:32:59.690Z,80.78
2017-10-27T13:35:27.297Z,81.00
2017-10-27T13:37:54.936Z,80.51
2017-10-27T13:40:22.611Z,80.84
2017-10-27T13:42:50.237Z,80.71
2017-10-27T13:45:17.935Z,80.59
2017-10-27T13:47:45.567Z,79.38
2017-10-27T13:50:13.186Z,76.78
2017-10-27T13:52:40.836Z,76.58
2017-10-27T13:55:09.416Z,76.71
2017-10-27T13:57:37.046Z,76.70
2017-10-27T14:00:04.655Z,74.94
2017-10-27T14:02:32.274Z,75.06
2017-10-27T14:04:59.856Z,75.98
2017-10-27T14:07:27.494Z,76.66
2017-10-27T14:09:55.113Z,77.09
2017-10-27T14:12:22.984Z,76.56
2017-10-27T14:14:50.616Z,77.59
2017-10-27T14:17:18.229Z,77.26
2017-10-27T14:19:46.177Z,78.27
2017-10-27T14:22:13.803Z,78.71
2017-10-27T14:24:41.422Z,79.66
2017-10-27T14:27:09.288Z,79.84
2017-10-27T14:29:36.907Z,79.83
2017-10-27T14:32:04.561Z,79.73
2017-10-27T14:34:32.168Z,79.77
2017-10-27T14:36:59.766Z,79.05
2017-10-27T14:39:27.399Z,78.80
2017-10-27T14:41:55.361Z,78.13
2017-10-27T14:44:23.115Z,78.65
2017-10-27T14:46:50.775Z,78.44
2017-10-27T14:49:20.969Z,78.55
2017-10-27T14:51:48.654Z,78.13
2017-10-27T14:54:16.254Z,78.48
2017-10-27T14:56:43.903Z,78.00
2017-10-27T14:59:11.526Z,78.29
2017-10-27T15:01:39.524Z,78.04
2017-10-27T15:04:07.140Z,78.23
2017-10-27T15:06:34.747Z,77.66
2017-10-27T15:09:02.710Z,76.60
2017-10-27T15:11:30.302Z,77.27
2017-10-27T15:13:57.913Z,76.97
2017-10-27T15:16:25.544Z,76.13
2017-10-27T15:18:53.133Z,75.45
2017-10-27T15:21:20.756Z,74.57
2017-10-27T15:23:48.381Z,74.49
2017-10-27T15:26:15.984Z,74.45
2017-10-27T15:28:43.625Z,74.72
2017-10-27T15:31:11.237Z,73.69
2017-10-27T15:33:38.837Z,74.41
2017-10-27T15:36:06.802Z,73.80
2017-10-27T15:38:34.398Z,73.89
2017-10-27T15:41:02.019Z,73.61
2017-10-27T15:43:29.636Z,73.48
2017-10-27T15:45:57.236Z,72.82
2017-10-27T15:48:24.879Z,71.90
2017-10-27T15:50:52.460Z,72.55
2017-10-27T15:53:20.343Z,71.56
2017-10-27T15:55:48.313Z,71.75
2017-10-27T15:58:15.995Z,70.95
2017-10-27T16:00:43.668Z,71.54
2017-10-27T16:03:11.295Z,71.43
2017-10-27T16:05:38.890Z,71.66
2017-10-27T16:08:06.829Z,71.41
2017-10-27T16:10:34.448Z,71.87
2017-10-27T16:13:02.125Z,72.03
2017-10-27T16:15:29.750Z,72.09
2017-10-27T16:17:57.408Z,72.91
2017-10-27T16:20:25.046Z,72.81
2017-10-27T16:22:52.632Z,72.25
2017-10-27T16:25:20.280Z,71.05
2017-10-27T16:27:47.904Z,69.78
2017-10-27T16:30:15.540Z,69.80
2017-10-27T16:32:43.146Z,69.57
2017-10-27T16:35:10.747Z,69.91
2017-10-27T16:37:38.381Z,69.91
2017-10-27T16:40:05.966Z,69.60
2017-10-27T16:42:33.569Z,69.10
2017-10-27T16:45:01.191Z,68.66
2017-10-27T16:47:28.781Z,68.80
2017-10-27T16:49:56.417Z,68.24
2017-10-27T16:52:24.039Z,68.55
2017-10-27T16:54:51.901Z,68.42
2017-10-27T16:57:19.559Z,68.16
2017-10-27T16:59:47.172Z,68.31
2017-10-27T17:02:15.109Z,67.85
2017-10-27T17:04:42.720Z,67.80
2017-10-27T17:07:10.324Z,68.14
2017-10-27T17:09:37.953Z,67.69
2017-10-27T17:12:05.614Z,67.82
2017-10-27T17:14:33.247Z,68.13
2017-10-27T17:17:00.857Z,67.88
2017-10-27T17:19:28.449Z,68.32
2017-10-27T17:21:56.097Z,68.54
2017-10-27T17:24:23.707Z,68.68
2017-10-27T17:26:51.367Z,68.32
2017-10-27T17:29:18.957Z,68.49
2017-10-27T17:31:46.561Z,68.78
2017-10-27T17:34:14.178Z,69.01
2017-10-27T17:36:41.817Z,69.50
2017-10-27T17:39:09.614Z,69.70
2017-10-27T17:41:37.254Z,69.89
2017-10-27T17:44:04.882Z,70.19
2017-10-27T17:46:32.505Z,70.76
2017-10-27T17:49:00.098Z,70.14
2017-10-27T17:51:27.719Z,70.54
2017-10-27T17:53:55.548Z,70.69
2017-10-27T17:56:23.136Z,71.39
2017-10-27T17:58:50.753Z,71.56
2017-10-27T18:01:18.333Z,71.56
2017-10-27T18:03:45.961Z,72.21
2017-10-27T18:06:13.555Z,71.49
2017-10-27T18:08:41.173Z,71.71
2017-10-27T18:11:08.793Z,71.08
2017-10-27T18:13:36.378Z,71.96
2017-10-27T18:16:04.022Z,71.96
2017-10-27T18:18:31.645Z,71.52
2017-10-27T18:20:59.236Z,71.84
2017-10-27T18:23:26.879Z,71.69
2017-10-27T18:25:54.507Z,71.09
2017-10-27T18:28:22.404Z,71.41
2017-10-27T18:30:50.002Z,71.09
2017-10-27T18:33:17.618Z,71.43
2017-10-27T18:35:45.246Z,71.64
2017-10-27T18:38:12.860Z,71.64
2017-10-27T18:40:40.539Z,71.96
2017-10-27T18:43:08.170Z,71.99
2017-10-27T18:45:35.762Z,72.24
2017-10-27T18:48:03.384Z,72.43
2017-10-27T18:50:30.969Z,72.67
2017-10-27T18:52:58.597Z,72.57
2017-10-27T18:55:26.216Z,72.13
2017-10-27T18:57:54.156Z,72.59
2017-10-27T19:00:21.775Z,72.74
2017-10-27T19:02:49.379Z,72.12
2017-10-27T19:05:17.018Z,72.33
2017-10-27T19:07:44.620Z,72.57
2017-10-27T19:10:12.211Z,73.02
2017-10-27T19:12:39.852Z,72.68
2017-10-27T19:15:07.451Z,72.06
2017-10-27T19:17:35.086Z,72.30
2017-10-27T19:20:02.696Z,72.28
2017-10-27T19:22:30.305Z,72.37
2017-10-27T19:24:57.934Z,72.40
2017-10-27T19:27:25.533Z,72.53
2017-10-27T19:29:53.167Z,72.49
2017-10-27T19:32:20.784Z,72.42
2017-10-27T19:34:48.374Z,72.55
2017-10-27T19:37:16.350Z,72.47
2017-10-27T19:39:43.965Z,72.91
2017-10-27T19:42:11.600Z,73.36
2017-10-27T19:44:39.194Z,73.47
2017-10-27T19:47:06.795Z,72.97
2017-10-27T19:49:34.770Z,73.28
2017-10-27T19:52:02.649Z,73.79
2017-10-27T19:54:30.614Z,73.79
2017-10-27T19:56:58.218Z,72.95
2017-10-27T19:59:25.814Z,73.55
2017-10-27T20:01:53.437Z,73.71
2017-10-27T20:04:21.039Z,73.98
2017-10-27T20:06:48.681Z,74.61
2017-10-27T20:09:16.282Z,74.68
2017-10-27T20:11:43.905Z,74.92
2017-10-27T20:14:11.561Z,75.58
2017-10-27T20:16:39.174Z,75.54
2017-10-27T20:19:06.806Z,75.87
2017-10-27T20:21:34.704Z,76.02
2017-10-27T20:24:02.336Z,76.03
2017-10-27T20:26:29.976Z,76.66
2017-10-27T20:28:57.568Z,76.77
2017-10-27T20:31:25.246Z,77.29
2017-10-27T20:33:52.855Z,77.65
2017-10-27T20:36:20.458Z,77.72
2017-10-27T20:38:48.119Z,77.67
2017-10-27T20:41:16.101Z,77.90
2017-10-27T20:43:43.728Z,78.00
2017-10-27T20:46:11.319Z,77.87
2017-10-27T20:48:39.197Z,77.87
2017-10-27T20:51:06.837Z,77.90
2017-10-27T20:53:35.268Z,77.91
2017-10-27T20:56:02.890Z,77.76
2017-10-27T20:58:30.770Z,77.79
2017-10-27T21:00:58.752Z,77.67
2017-10-27T21:03:26.424Z,77.74
2017-10-27T21:05:54.009Z,77.74
2017-10-27T21:08:21.670Z,77.93
2017-10-27T21:10:49.273Z,77.48
2017-10-27T21:13:16.852Z,77.57
2017-10-27T21:15:44.457Z,77.77
2017-10-27T21:18:12.055Z,77.82
2017-10-27T21:20:39.672Z,78.05
2017-10-27T21:23:07.279Z,77.80
2017-10-27T21:25:34.861Z,77.95
2017-10-27T21:28:02.493Z,78.16
2017-10-27T21:30:30.105Z,78.08
2017-10-27T21:32:57.796Z,78.10
2017-10-27T21:35:25.399Z,77.86
2017-10-27T21:37:53.020Z,77.77
2017-10-27T21:40:20.649Z,77.80
2017-10-27T21:42:48.246Z,77.96
2017-10-27T21:45:15.862Z,78.12
2017-10-27T21:47:43.453Z,77.98
2017-10-27T21:50:11.392Z,77.83
2017-10-27T21:52:39.387Z,78.08
2017-10-27T21:55:06.985Z,78.03
2017-10-27T21:57:34.587Z,77.63
2017-10-27T22:00:02.203Z,77.86
2017-10-27T22:02:30.218Z,77.96
2017-10-27T22:04:57.828Z,78.02
2017-10-27T22:07:25.466Z,78.02
2017-10-27T22:09:53.410Z,78.41
2017-10-27T22:12:21.025Z,78.64
2017-10-27T22:14:48.661Z,78.70
2017-10-27T22:17:16.266Z,78.47
2017-10-27T22:19:43.870Z,78.41
2017-10-27T22:22:11.507Z,78.85
2017-10-27T22:24:39.108Z,78.60
2017-10-27T22:27:07.169Z,78.95
2017-10-27T22:29:34.761Z,78.95
2017-10-27T22:32:02.351Z,78.80
2017-10-27T22:34:29.982Z,79.01
2017-10-27T22:36:57.629Z,79.06
2017-10-27T22:39:25.569Z,79.44
2017-10-27T22:41:53.160Z,79.62
2017-10-27T22:44:20.741Z,79.57
2017-10-27T22:46:51.413Z,79.66
2017-10-27T22:49:19.055Z,79.63
2017-10-27T22:51:46.704Z,78.83
2017-10-27T22:54:14.621Z,78.75
2017-10-27T22:56:42.253Z,78.70
2017-10-27T22:59:09.876Z,79.02
2017-10-27T23:01:37.821Z,78.93
2017-10-27T23:04:05.448Z,79.15
2017-10-27T23:06:33.032Z,79.13
2017-10-27T23:09:00.637Z,79.17
2017-10-27T23:11:28.258Z,79.36
2017-10-27T23:13:55.838Z,79.40
2017-10-27T23:16:23.467Z,79.53
2017-10-27T23:18:51.049Z,79.64
2017-10-27T23:21:18.636Z,79.38
2017-10-27T23:23:46.247Z,79.31
2017-10-27T23:26:13.840Z,79.54
2017-10-27T23:28:41.804Z,79.61
2017-10-27T23:31:09.406Z,79.40
2017-10-27T23:33:36.985Z,79.44
2017-10-27T23:36:04.622Z,79.67
2017-10-27T23:38:32.206Z,79.52
2017-10-27T23:40:59.845Z,79.69
2017-10-27T23:43:27.441Z,80.63
2017-10-27T23:45:55.029Z,80.90
2017-10-27T23:48:22.910Z,81.05
2017-10-27T23:50:50.489Z,80.93
2017-10-27T23:53:18.135Z,81.08
2017-10-27T23:55:45.728Z,81.21
2017-10-27T23:58:13.325Z,81.11
